createdAt,value
2019-02-11T00:02:09.830Z,38.10
2019-02-11T00:05:33.526Z,40.30
2019-02-11T00:08:57.013Z,51.63
2019-02-11T00:12:20.598Z,58.27
2019-02-11T00:15:44.283Z,51.53
2019-02-11T00:19:09.071Z,52.43
2019-02-11T00:22:32.648Z,38.20
2019-02-11T00:25:56.538Z,49.07
2019-02-11T00:29:20.107Z,57.77
2019-02-11T00:32:43.789Z,60.57
2019-02-11T00:36:07.551Z,48.60
2019-02-11T00:39:31.341Z,64.93
2019-02-11T00:42:54.934Z,57.27
2019-02-11T00:46:18.490Z,75.63
2019-02-11T00:49:42.643Z,31.93
2019-02-11T00:53:06.314Z,75.20
2019-02-11T00:56:29.999Z,80.30
2019-02-11T00:59:53.503Z,85.80
2019-02-11T01:03:17.139Z,52.03
2019-02-11T01:06:40.890Z,74.83
2019-02-11T01:10:07.472Z,75.30
2019-02-11T01:13:31.044Z,66.80
2019-02-11T01:16:54.748Z,41.20
2019-02-11T01:20:18.516Z,88.83
2019-02-11T01:23:42.217Z,75.03
2019-02-11T01:27:05.727Z,34.57
2019-02-11T01:30:29.512Z,95.00
2019-02-11T01:33:53.247Z,59.70
2019-02-11T01:37:16.975Z,98.27
2019-02-11T01:40:40.686Z,83.43
2019-02-11T01:44:04.336Z,101.10
2019-02-11T01:47:27.885Z,88.90
2019-02-11T01:50:51.565Z,91.00
2019-02-11T01:54:15.213Z,91.80
2019-02-11T01:57:38.958Z,96.80
2019-02-11T02:01:03.194Z,96.00
2019-02-11T02:04:26.916Z,87.47
2019-02-11T02:07:50.608Z,80.13
2019-02-11T02:11:14.175Z,86.70
2019-02-11T02:14:37.907Z,84.57
2019-02-11T02:18:01.705Z,65.70
2019-02-11T02:21:25.424Z,82.10
2019-02-11T02:24:49.055Z,71.77
2019-02-11T02:28:12.829Z,66.33
2019-02-11T02:31:36.323Z,70.07
2019-02-11T02:34:59.904Z,72.03
2019-02-11T02:38:23.751Z,58.40
2019-02-11T02:41:47.379Z,74.17
2019-02-11T02:45:10.916Z,80.87
2019-02-11T02:48:34.466Z,74.00
2019-02-11T02:51:58.183Z,73.17
2019-02-11T02:55:22.127Z,71.40
2019-02-11T02:58:45.886Z,48.43
2019-02-11T03:02:09.681Z,80.50
2019-02-11T03:05:33.453Z,84.30
2019-02-11T03:08:57.064Z,74.37
2019-02-11T03:12:20.673Z,76.40
2019-02-11T03:15:44.423Z,69.17
2019-02-11T03:19:08.989Z,51.00
2019-02-11T03:22:32.696Z,63.47
2019-02-11T03:25:56.470Z,75.10
2019-02-11T03:29:20.030Z,63.27
2019-02-11T03:32:43.641Z,73.93
2019-02-11T03:36:07.128Z,62.57
2019-02-11T03:39:31.094Z,75.77
2019-02-11T03:42:54.660Z,58.47
2019-02-11T03:46:18.236Z,55.27
2019-02-11T03:49:41.863Z,66.10
2019-02-11T03:53:05.433Z,70.30
2019-02-11T03:56:29.154Z,62.97
2019-02-11T03:59:52.705Z,66.47
2019-02-11T04:03:16.490Z,37.73
2019-02-11T04:06:40.077Z,48.93
2019-02-11T04:10:04.685Z,47.97
2019-02-11T04:13:28.563Z,44.80
2019-02-11T04:16:52.230Z,59.70
2019-02-11T04:20:16.088Z,53.97
2019-02-11T04:23:39.650Z,55.57
2019-02-11T04:27:03.423Z,42.57
2019-02-11T04:30:26.927Z,55.03
2019-02-11T04:33:50.525Z,49.63
2019-02-11T04:37:14.001Z,51.63
2019-02-11T04:40:37.634Z,42.50
2019-02-11T04:44:01.290Z,41.53
2019-02-11T04:47:24.803Z,49.97
2019-02-11T04:50:48.275Z,43.40
2019-02-11T04:54:11.802Z,48.00
2019-02-11T04:57:35.486Z,51.17
2019-02-11T05:00:59.058Z,38.97
2019-02-11T05:04:22.671Z,38.13
2019-02-11T05:07:46.102Z,41.20
2019-02-11T05:11:09.604Z,53.40
2019-02-11T05:14:33.260Z,44.73
2019-02-11T05:17:56.720Z,47.27
2019-02-11T05:21:20.237Z,46.30
2019-02-11T05:24:43.995Z,36.97
2019-02-11T05:28:07.766Z,45.67
2019-02-11T05:31:32.767Z,47.23
2019-02-11T05:34:56.636Z,50.80
2019-02-11T05:38:20.124Z,38.70
2019-02-11T05:41:43.689Z,44.13
2019-02-11T05:45:08.529Z,49.40
2019-02-11T05:48:32.090Z,41.00
2019-02-11T05:51:55.660Z,41.00
2019-02-11T05:55:19.104Z,40.60
2019-02-11T05:58:42.863Z,34.47
2019-02-11T06:02:06.488Z,44.90
2019-02-11T06:05:30.163Z,47.27
2019-02-11T06:08:54.056Z,46.47
2019-02-11T06:12:17.444Z,48.73
2019-02-11T06:15:41.064Z,43.20
2019-02-11T06:19:04.734Z,39.40
2019-02-11T06:22:28.325Z,43.47
2019-02-11T06:25:51.971Z,46.63
2019-02-11T06:29:15.562Z,49.53
2019-02-11T06:32:40.583Z,45.07
2019-02-11T06:36:11.909Z,20.57
2019-02-11T06:39:29.351Z,40.07
2019-02-11T06:42:52.943Z,38.20
2019-02-11T06:46:16.373Z,38.10
2019-02-11T06:49:39.983Z,24.00
2019-02-11T06:53:03.576Z,39.07
2019-02-11T06:56:27.241Z,28.37
2019-02-11T06:59:50.631Z,31.57
2019-02-11T07:03:14.143Z,34.77
2019-02-11T07:06:37.752Z,34.77
2019-02-11T07:10:01.339Z,34.47
2019-02-11T07:13:24.906Z,25.20
2019-02-11T07:16:48.323Z,23.20
2019-02-11T07:20:11.918Z,38.00
2019-02-11T07:23:35.395Z,31.47
2019-02-11T07:26:59.070Z,35.17
2019-02-11T07:30:22.678Z,33.80
2019-02-11T07:33:46.241Z,20.70
2019-02-11T07:37:09.848Z,28.17
2019-02-11T07:40:33.706Z,22.00
2019-02-11T07:43:58.910Z,18.60
2019-02-11T07:47:22.550Z,34.43
2019-02-11T07:50:45.978Z,24.03
2019-02-11T07:54:09.478Z,32.37
2019-02-11T07:57:32.948Z,21.73
2019-02-11T08:00:56.536Z,32.43
2019-02-11T08:04:20.156Z,26.37
2019-02-11T08:07:43.583Z,33.47
2019-02-11T08:11:07.145Z,25.63
2019-02-11T08:14:30.597Z,27.93
2019-02-11T08:17:54.347Z,30.90
2019-02-11T08:21:17.917Z,25.23
2019-02-11T08:24:41.604Z,32.07
2019-02-11T08:28:05.041Z,29.83
2019-02-11T08:31:28.599Z,25.67
2019-02-11T08:34:52.208Z,27.60
2019-02-11T08:38:15.650Z,29.43
2019-02-11T08:41:39.185Z,20.87
2019-02-11T08:45:02.917Z,32.53
2019-02-11T08:48:26.570Z,26.93
2019-02-11T08:51:50.148Z,34.97
2019-02-11T08:55:13.715Z,23.97
2019-02-11T08:58:37.323Z,33.40
2019-02-11T09:02:00.998Z,29.30
2019-02-11T09:05:24.842Z,33.43
2019-02-11T09:08:48.391Z,26.67
2019-02-11T09:12:12.034Z,18.97
2019-02-11T09:15:35.565Z,34.53
2019-02-11T09:18:59.104Z,27.67
2019-02-11T09:22:22.517Z,35.73
2019-02-11T09:25:46.219Z,24.27
2019-02-11T09:29:09.963Z,23.97
2019-02-11T09:32:33.543Z,22.20
2019-02-11T09:35:57.215Z,34.60
2019-02-11T09:39:20.826Z,27.63
2019-02-11T09:42:44.401Z,33.73
2019-02-11T09:46:07.925Z,21.30
2019-02-11T09:49:31.419Z,23.10
2019-02-11T09:52:55.121Z,24.47
2019-02-11T09:56:18.606Z,20.40
2019-02-11T09:59:42.152Z,20.03
2019-02-11T10:03:05.831Z,22.30
2019-02-11T10:06:29.479Z,21.30
2019-02-11T10:09:53.084Z,26.67
2019-02-11T10:13:17.217Z,30.30
2019-02-11T10:16:40.848Z,19.07
2019-02-11T10:20:06.878Z,18.73
2019-02-11T10:23:30.630Z,20.87
2019-02-11T10:26:54.241Z,16.40
2019-02-11T10:30:17.800Z,16.10
2019-02-11T10:33:41.311Z,13.20
2019-02-11T10:37:05.005Z,13.20
2019-02-11T10:40:28.606Z,10.43
2019-02-11T10:43:52.062Z,24.37
2019-02-11T10:47:15.666Z,14.23
2019-02-11T10:50:39.139Z,8.07
2019-02-11T10:54:03.845Z,11.57
2019-02-11T10:57:27.483Z,8.47
2019-02-11T11:00:51.264Z,6.63
2019-02-11T11:04:14.938Z,10.80
2019-02-11T11:07:38.850Z,11.30
2019-02-11T11:11:02.508Z,11.13
2019-02-11T11:14:26.019Z,14.27
2019-02-11T11:17:50.293Z,11.50
2019-02-11T11:21:14.303Z,11.43
2019-02-11T11:24:38.155Z,8.20
2019-02-11T11:28:01.845Z,10.73
2019-02-11T11:31:25.518Z,4.33
2019-02-11T11:34:49.098Z,5.30
2019-02-11T11:38:12.810Z,7.23
2019-02-11T11:41:36.285Z,5.93
2019-02-11T11:44:59.865Z,7.93
2019-02-11T11:48:23.475Z,2.83
2019-02-11T11:51:47.220Z,3.53
2019-02-11T11:55:17.316Z,4.53
2019-02-11T11:58:40.984Z,4.50
2019-02-11T12:02:04.638Z,2.30
2019-02-11T12:05:28.248Z,2.97
2019-02-11T12:08:51.945Z,2.07
2019-02-11T12:12:16.586Z,6.67
2019-02-11T12:15:40.131Z,7.30
2019-02-11T12:19:03.594Z,3.70
2019-02-11T12:22:27.207Z,2.87
2019-02-11T12:25:50.771Z,1.83
2019-02-11T12:29:14.316Z,6.93
2019-02-11T12:32:37.891Z,6.97
2019-02-11T12:36:01.329Z,2.90
2019-02-11T12:39:24.948Z,2.10
2019-02-11T12:42:48.552Z,3.20
2019-02-11T12:46:12.046Z,3.97
2019-02-11T12:49:35.777Z,4.13
2019-02-11T12:53:03.390Z,2.80
2019-02-11T12:56:26.838Z,5.60
2019-02-11T12:59:50.396Z,2.10
2019-02-11T13:03:13.980Z,4.10
2019-02-11T13:06:37.683Z,6.20
2019-02-11T13:10:01.382Z,8.30
2019-02-11T13:13:25.106Z,7.27
2019-02-11T13:16:49.678Z,7.30
2019-02-11T13:20:15.554Z,4.47
2019-02-11T13:23:39.290Z,3.13
2019-02-11T13:27:02.984Z,7.50
2019-02-11T13:30:26.450Z,10.03
2019-02-11T13:33:49.981Z,14.13
2019-02-11T13:37:13.677Z,2.30
2019-02-11T13:40:37.250Z,6.10
2019-02-11T13:44:00.911Z,4.07
2019-02-11T13:47:24.633Z,11.10
2019-02-11T13:50:48.199Z,6.03
2019-02-11T13:54:11.880Z,10.20
2019-02-11T13:57:35.531Z,8.20
2019-02-11T14:00:59.145Z,9.47
2019-02-11T14:04:28.429Z,9.40
2019-02-11T14:07:48.087Z,11.67
2019-02-11T14:11:11.864Z,12.30
2019-02-11T14:14:35.518Z,7.20
2019-02-11T14:18:12.191Z,18.33
2019-02-11T14:21:27.839Z,11.67
2019-02-11T14:24:51.408Z,17.77
2019-02-11T14:28:14.888Z,16.30
2019-02-11T14:31:38.519Z,21.27
2019-02-11T14:35:02.239Z,15.13
2019-02-11T14:38:25.673Z,14.23
2019-02-11T14:41:49.594Z,23.20
2019-02-11T14:45:18.364Z,17.67
2019-02-11T14:48:42.000Z,10.37
2019-02-11T14:52:05.631Z,20.53
2019-02-11T14:55:29.181Z,21.20
2019-02-11T14:58:52.850Z,19.90
2019-02-11T15:02:16.553Z,11.57
2019-02-11T15:05:40.011Z,12.53
2019-02-11T15:09:04.171Z,19.90
2019-02-11T15:12:27.781Z,19.50
2019-02-11T15:15:51.444Z,21.03
2019-02-11T15:19:15.023Z,18.80
2019-02-11T15:22:38.671Z,25.27
2019-02-11T15:26:02.251Z,24.53
2019-02-11T15:29:25.765Z,18.97
2019-02-11T15:32:49.373Z,17.10
2019-02-11T15:36:13.110Z,27.43
2019-02-11T15:39:36.651Z,25.47
2019-02-11T15:43:00.255Z,26.40
2019-02-11T15:46:23.839Z,21.73
2019-02-11T15:49:47.505Z,26.07
2019-02-11T15:53:11.177Z,11.33
2019-02-11T15:56:34.724Z,14.43
2019-02-11T15:59:59.930Z,14.87
2019-02-11T16:03:24.041Z,16.30
2019-02-11T16:06:48.053Z,14.33
2019-02-11T16:10:14.509Z,16.03
2019-02-11T16:13:38.230Z,12.00
2019-02-11T16:17:02.038Z,20.77
2019-02-11T16:20:25.965Z,24.47
2019-02-11T16:23:51.532Z,25.87
2019-02-11T16:27:15.831Z,31.33
2019-02-11T16:30:39.749Z,30.10
2019-02-11T16:34:05.351Z,25.80
2019-02-11T16:37:29.303Z,24.67
2019-02-11T16:40:53.938Z,23.37
2019-02-11T16:44:18.363Z,17.43
2019-02-11T16:47:44.180Z,12.73
2019-02-11T16:51:08.659Z,24.57
2019-02-11T16:54:37.836Z,25.27
2019-02-11T16:58:01.630Z,26.80
2019-02-11T17:01:25.931Z,26.60
2019-02-11T17:04:49.919Z,28.57
2019-02-11T17:08:14.305Z,27.00
2019-02-11T17:11:38.336Z,33.17
2019-02-11T17:15:02.768Z,22.70
2019-02-11T17:18:28.655Z,22.43
2019-02-11T17:21:53.175Z,30.77
2019-02-11T17:25:17.302Z,34.67
2019-02-11T17:28:42.534Z,38.30
2019-02-11T17:32:06.658Z,33.77
2019-02-11T17:35:32.371Z,28.87
2019-02-11T17:38:56.428Z,36.73
2019-02-11T17:42:20.572Z,29.07
2019-02-11T17:45:44.980Z,18.57
2019-02-11T17:49:17.433Z,19.10
2019-02-11T17:52:34.590Z,24.50
2019-02-11T17:55:58.553Z,22.50
2019-02-11T17:59:22.351Z,23.80
2019-02-11T18:02:46.314Z,21.97
2019-02-11T18:06:10.108Z,30.43
2019-02-11T18:09:33.955Z,30.27
2019-02-11T18:12:57.662Z,31.97
2019-02-11T18:16:21.291Z,25.70
2019-02-11T18:19:45.056Z,44.40
2019-02-11T18:23:08.662Z,45.07
2019-02-11T18:26:32.949Z,34.07
2019-02-11T18:29:56.933Z,29.17
2019-02-11T18:33:20.605Z,24.30
2019-02-11T18:36:46.012Z,25.03
2019-02-11T18:40:12.143Z,33.50
2019-02-11T18:43:35.767Z,26.97
2019-02-11T18:46:59.370Z,18.73
2019-02-11T18:50:23.770Z,28.73
2019-02-11T18:53:47.675Z,20.57
2019-02-11T18:57:11.349Z,51.83
2019-02-11T19:00:35.719Z,35.47
2019-02-11T19:04:02.363Z,29.83
2019-02-11T19:07:26.099Z,20.03
2019-02-11T19:10:50.005Z,23.00
2019-02-11T19:14:13.723Z,29.90
2019-02-11T19:17:39.608Z,15.43
2019-02-11T19:21:03.383Z,34.07
2019-02-11T19:24:27.286Z,17.07
2019-02-11T19:27:50.950Z,26.77
2019-02-11T19:31:14.630Z,31.80
2019-02-11T19:34:38.509Z,43.93
2019-02-11T19:38:02.348Z,16.37
2019-02-11T19:41:26.300Z,22.10
2019-02-11T19:44:50.469Z,31.97
2019-02-11T19:48:14.437Z,28.63
2019-02-11T19:51:38.392Z,18.40
2019-02-11T19:55:02.153Z,61.07
2019-02-11T19:58:26.842Z,26.67
2019-02-11T20:01:52.283Z,51.87
2019-02-11T20:05:16.569Z,31.60
2019-02-11T20:08:40.319Z,27.33
2019-02-11T20:12:05.118Z,23.97
2019-02-11T20:15:30.519Z,22.20
2019-02-11T20:18:54.835Z,25.23
2019-02-11T20:22:21.575Z,37.50
2019-02-11T20:25:45.968Z,30.83
2019-02-11T20:29:11.351Z,43.77
2019-02-11T20:32:40.779Z,15.33
2019-02-11T20:36:04.684Z,17.70
2019-02-11T20:39:28.384Z,23.33
2019-02-11T20:42:52.448Z,25.23
2019-02-11T20:46:16.223Z,30.50
2019-02-11T20:49:41.349Z,18.97
2019-02-11T20:53:05.094Z,17.80
2019-02-11T20:56:28.881Z,12.70
2019-02-11T20:59:52.725Z,16.37
2019-02-11T21:03:16.863Z,37.23
2019-02-11T21:06:40.870Z,12.77
2019-02-11T21:10:07.726Z,23.73
2019-02-11T21:13:31.661Z,14.27
2019-02-11T21:16:55.666Z,13.23
2019-02-11T21:20:39.088Z,15.07
2019-02-11T21:24:03.463Z,16.93
2019-02-11T21:27:28.695Z,19.60
2019-02-11T21:30:54.177Z,16.83
2019-02-11T21:34:18.790Z,20.70
2019-02-11T21:37:43.235Z,15.63
2019-02-11T21:41:07.848Z,15.83
2019-02-11T21:44:31.597Z,20.87
2019-02-11T21:47:55.344Z,22.03
2019-02-11T21:51:19.080Z,25.73
2019-02-11T21:54:43.008Z,19.67
2019-02-11T21:58:06.666Z,17.80
2019-02-11T22:01:30.859Z,19.00
2019-02-11T22:04:54.782Z,15.97
2019-02-11T22:08:18.417Z,21.33
2019-02-11T22:11:42.078Z,22.57
2019-02-11T22:15:07.148Z,35.50
2019-02-11T22:18:30.901Z,24.30
2019-02-11T22:21:54.983Z,18.10
2019-02-11T22:25:18.779Z,21.37
2019-02-11T22:28:42.753Z,11.40
2019-02-11T22:32:06.721Z,27.73
2019-02-11T22:35:30.908Z,24.60
2019-02-11T22:38:54.917Z,20.80
2019-02-11T22:42:19.212Z,17.03
2019-02-11T22:45:42.916Z,21.13
2019-02-11T22:49:06.613Z,14.40
2019-02-11T22:52:30.276Z,19.10
2019-02-11T22:55:54.168Z,26.47
2019-02-11T22:59:17.873Z,21.53
2019-02-11T23:02:41.609Z,24.70
2019-02-11T23:06:05.328Z,21.67
2019-02-11T23:09:28.993Z,17.60
2019-02-11T23:12:52.763Z,25.47
2019-02-11T23:16:16.429Z,18.10
2019-02-11T23:19:40.242Z,27.63
2019-02-11T23:23:03.828Z,21.90
2019-02-11T23:26:27.572Z,25.53
2019-02-11T23:29:51.234Z,32.40
2019-02-11T23:33:14.840Z,16.90
2019-02-11T23:36:38.301Z,28.07
2019-02-11T23:40:02.163Z,28.93
2019-02-11T23:43:25.730Z,23.63
2019-02-11T23:46:49.332Z,26.23
2019-02-11T23:50:12.919Z,18.33
2019-02-11T23:53:36.480Z,22.87
2019-02-11T23:57:00.258Z,18.90
